sensor_id;sensor_type;location;lat;lon;timestamp;temperature;humidity
10964;DHT22;5534;48.784;9.190;2023-04-24T00:00:27;13.90;99.90
10964;DHT22;5534;48.784;9.190;2023-04-24T00:02:53;14.00;99.90
10964;DHT22;5534;48.784;9.190;2023-04-24T00:05:22;14.10;99.90
10964;DHT22;5534;48.784;9.190;2023-04-24T00:07:48;14.10;99.90
10964;DHT22;5534;48.784;9.190;2023-04-24T00:10:14;14.10;99.90
10964;DHT22;5534;48.784;9.190;2023-04-24T00:12:39;14.10;99.90
10964;DHT22;5534;48.784;9.190;2023-04-24T00:15:06;14.10;99.90
10964;DHT22;5534;48.784;9.190;2023-04-24T00:17:31;14.00;99.90
10964;DHT22;5534;48.784;9.190;2023-04-24T00:19:57;14.00;99.90
10964;DHT22;5534;48.784;9.190;2023-04-24T00:22:30;14.10;99.90
10964;DHT22;5534;48.784;9.190;2023-04-24T00:24:56;14.20;99.90
10964;DHT22;5534;48.784;9.190;2023-04-24T00:27:22;14.20;99.90
10964;DHT22;5534;48.784;9.190;2023-04-24T00:29:48;14.10;99.90
10964;DHT22;5534;48.784;9.190;2023-04-24T00:32:14;14.20;99.90
10964;DHT22;5534;48.784;9.190;2023-04-24T00:34:40;14.00;99.90
10964;DHT22;5534;48.784;9.190;2023-04-24T00:37:06;14.10;99.90
10964;DHT22;5534;48.784;9.190;2023-04-24T00:39:32;14.10;99.90
10964;DHT22;5534;48.784;9.190;2023-04-24T00:41:58;14.10;99.90
10964;DHT22;5534;48.784;9.190;2023-04-24T00:44:24;14.10;99.90
10964;DHT22;5534;48.784;9.190;2023-04-24T00:46:50;13.90;99.90
10964;DHT22;5534;48.784;9.190;2023-04-24T00:49:23;13.90;99.90
10964;DHT22;5534;48.784;9.190;2023-04-24T00:51:49;14.00;99.90
10964;DHT22;5534;48.784;9.190;2023-04-24T00:54:17;14.00;99.90
10964;DHT22;5534;48.784;9.190;2023-04-24T00:56:44;14.10;99.90
10964;DHT22;5534;48.784;9.190;2023-04-24T00:59:12;14.20;99.90
10964;DHT22;5534;48.784;9.190;2023-04-24T01:01:38;14.20;99.90
10964;DHT22;5534;48.784;9.190;2023-04-24T01:04:07;14.10;99.90
10964;DHT22;5534;48.784;9.190;2023-04-24T01:06:40;14.20;99.90
10964;DHT22;5534;48.784;9.190;2023-04-24T01:09:07;14.20;99.90
10964;DHT22;5534;48.784;9.190;2023-04-24T01:11:36;14.30;99.90
10964;DHT22;5534;48.784;9.190;2023-04-24T01:14:02;14.20;99.90
10964;DHT22;5534;48.784;9.190;2023-04-24T01:16:29;14.30;99.90
10964;DHT22;5534;48.784;9.190;2023-04-24T01:18:54;14.20;99.90
10964;DHT22;5534;48.784;9.190;2023-04-24T01:21:21;14.20;99.90
10964;DHT22;5534;48.784;9.190;2023-04-24T01:23:49;14.40;99.90
10964;DHT22;5534;48.784;9.190;2023-04-24T01:26:16;14.20;99.90
10964;DHT22;5534;48.784;9.190;2023-04-24T01:28:42;14.20;99.90
10964;DHT22;5534;48.784;9.190;2023-04-24T01:31:08;14.20;99.90
10964;DHT22;5534;48.784;9.190;2023-04-24T01:33:34;14.20;99.90
10964;DHT22;5534;48.784;9.190;2023-04-24T01:36:00;14.20;99.90
10964;DHT22;5534;48.784;9.190;2023-04-24T01:38:27;14.20;99.90
10964;DHT22;5534;48.784;9.190;2023-04-24T01:40:53;14.20;99.90
10964;DHT22;5534;48.784;9.190;2023-04-24T01:43:18;14.10;99.90
10964;DHT22;5534;48.784;9.190;2023-04-24T01:45:44;14.10;99.90
10964;DHT22;5534;48.784;9.190;2023-04-24T01:48:11;14.10;99.90
10964;DHT22;5534;48.784;9.190;2023-04-24T01:50:37;14.10;99.90
10964;DHT22;5534;48.784;9.190;2023-04-24T01:53:03;14.20;99.90
10964;DHT22;5534;48.784;9.190;2023-04-24T01:55:29;14.20;99.90
10964;DHT22;5534;48.784;9.190;2023-04-24T01:57:56;14.30;99.90
10964;DHT22;5534;48.784;9.190;2023-04-24T02:00:22;14.30;99.90
10964;DHT22;5534;48.784;9.190;2023-04-24T02:02:48;14.30;99.90
10964;DHT22;5534;48.784;9.190;2023-04-24T02:05:14;14.30;99.90
10964;DHT22;5534;48.784;9.190;2023-04-24T02:07:40;14.20;99.90
10964;DHT22;5534;48.784;9.190;2023-04-24T02:10:06;14.10;99.90
10964;DHT22;5534;48.784;9.190;2023-04-24T02:12:32;14.10;99.90
10964;DHT22;5534;48.784;9.190;2023-04-24T02:14:58;14.00;99.90
10964;DHT22;5534;48.784;9.190;2023-04-24T02:17:24;14.10;99.90
10964;DHT22;5534;48.784;9.190;2023-04-24T02:19:50;14.10;99.90
10964;DHT22;5534;48.784;9.190;2023-04-24T02:22:16;14.10;99.90
10964;DHT22;5534;48.784;9.190;2023-04-24T02:24:41;14.10;99.90
10964;DHT22;5534;48.784;9.190;2023-04-24T02:27:07;13.90;99.90
10964;DHT22;5534;48.784;9.190;2023-04-24T02:29:34;13.80;99.90
10964;DHT22;5534;48.784;9.190;2023-04-24T02:32:00;14.00;99.90
10964;DHT22;5534;48.784;9.190;2023-04-24T02:34:25;14.00;99.90
10964;DHT22;5534;48.784;9.190;2023-04-24T02:36:51;14.10;99.90
10964;DHT22;5534;48.784;9.190;2023-04-24T02:39:19;14.10;99.90
10964;DHT22;5534;48.784;9.190;2023-04-24T02:41:45;14.10;99.90
10964;DHT22;5534;48.784;9.190;2023-04-24T02:44:11;14.10;99.90
10964;DHT22;5534;48.784;9.190;2023-04-24T02:46:36;14.00;99.90
10964;DHT22;5534;48.784;9.190;2023-04-24T02:49:02;14.00;99.90
10964;DHT22;5534;48.784;9.190;2023-04-24T02:51:29;14.00;99.90
10964;DHT22;5534;48.784;9.190;2023-04-24T02:53:55;14.00;99.90
10964;DHT22;5534;48.784;9.190;2023-04-24T02:56:20;13.90;99.90
10964;DHT22;5534;48.784;9.190;2023-04-24T02:58:46;13.90;99.90
10964;DHT22;5534;48.784;9.190;2023-04-24T03:01:12;14.00;99.90
10964;DHT22;5534;48.784;9.190;2023-04-24T03:03:39;13.80;99.90
10964;DHT22;5534;48.784;9.190;2023-04-24T03:06:05;13.70;99.90
10964;DHT22;5534;48.784;9.190;2023-04-24T03:08:31;13.60;99.90
10964;DHT22;5534;48.784;9.190;2023-04-24T03:10:57;13.90;99.90
10964;DHT22;5534;48.784;9.190;2023-04-24T03:13:23;13.90;99.90
10964;DHT22;5534;48.784;9.190;2023-04-24T03:15:49;13.90;99.90
10964;DHT22;5534;48.784;9.190;2023-04-24T03:18:15;13.90;99.90
10964;DHT22;5534;48.784;9.190;2023-04-24T03:20:40;13.80;99.90
10964;DHT22;5534;48.784;9.190;2023-04-24T03:23:06;13.90;99.90
10964;DHT22;5534;48.784;9.190;2023-04-24T03:25:32;13.90;99.90
10964;DHT22;5534;48.784;9.190;2023-04-24T03:27:57;13.90;99.90
10964;DHT22;5534;48.784;9.190;2023-04-24T03:30:23;13.80;99.90
10964;DHT22;5534;48.784;9.190;2023-04-24T03:32:49;13.90;99.90
10964;DHT22;5534;48.784;9.190;2023-04-24T03:35:16;13.80;99.90
10964;DHT22;5534;48.784;9.190;2023-04-24T03:37:43;13.80;99.90
10964;DHT22;5534;48.784;9.190;2023-04-24T03:40:09;13.80;99.90
10964;DHT22;5534;48.784;9.190;2023-04-24T03:42:35;13.70;99.90
10964;DHT22;5534;48.784;9.190;2023-04-24T03:45:00;13.70;99.90
10964;DHT22;5534;48.784;9.190;2023-04-24T03:47:26;13.60;99.90
10964;DHT22;5534;48.784;9.190;2023-04-24T03:49:52;13.70;99.90
10964;DHT22;5534;48.784;9.190;2023-04-24T03:52:19;13.50;99.90
10964;DHT22;5534;48.784;9.190;2023-04-24T03:54:44;13.60;99.90
10964;DHT22;5534;48.784;9.190;2023-04-24T03:57:10;13.40;99.90
10964;DHT22;5534;48.784;9.190;2023-04-24T03:59:36;13.50;99.90
10964;DHT22;5534;48.784;9.190;2023-04-24T04:02:02;13.50;99.90
10964;DHT22;5534;48.784;9.190;2023-04-24T04:04:27;13.40;99.90
10964;DHT22;5534;48.784;9.190;2023-04-24T04:06:53;13.50;99.90
10964;DHT22;5534;48.784;9.190;2023-04-24T04:09:19;13.60;99.90
10964;DHT22;5534;48.784;9.190;2023-04-24T04:11:44;13.60;99.90
10964;DHT22;5534;48.784;9.190;2023-04-24T04:14:10;13.70;99.90
10964;DHT22;5534;48.784;9.190;2023-04-24T04:16:36;13.60;99.90
10964;DHT22;5534;48.784;9.190;2023-04-24T04:19:02;13.50;99.90
10964;DHT22;5534;48.784;9.190;2023-04-24T04:21:28;13.70;99.90
10964;DHT22;5534;48.784;9.190;2023-04-24T04:23:54;13.60;99.90
10964;DHT22;5534;48.784;9.190;2023-04-24T04:26:20;13.60;99.90
10964;DHT22;5534;48.784;9.190;2023-04-24T04:28:46;13.70;99.90
10964;DHT22;5534;48.784;9.190;2023-04-24T04:31:13;13.50;99.90
10964;DHT22;5534;48.784;9.190;2023-04-24T04:33:39;13.40;99.90
10964;DHT22;5534;48.784;9.190;2023-04-24T04:36:05;13.30;99.90
10964;DHT22;5534;48.784;9.190;2023-04-24T04:38:31;13.40;99.90
10964;DHT22;5534;48.784;9.190;2023-04-24T04:40:56;13.30;99.90
10964;DHT22;5534;48.784;9.190;2023-04-24T04:43:23;13.20;99.90
10964;DHT22;5534;48.784;9.190;2023-04-24T04:45:50;13.00;99.90
10964;DHT22;5534;48.784;9.190;2023-04-24T04:48:17;12.90;99.90
10964;DHT22;5534;48.784;9.190;2023-04-24T04:50:43;13.00;99.90
10964;DHT22;5534;48.784;9.190;2023-04-24T04:53:09;12.80;99.90
10964;DHT22;5534;48.784;9.190;2023-04-24T04:55:34;12.70;99.90
10964;DHT22;5534;48.784;9.190;2023-04-24T04:58:00;12.80;99.90
10964;DHT22;5534;48.784;9.190;2023-04-24T05:00:27;13.00;99.90
10964;DHT22;5534;48.784;9.190;2023-04-24T05:02:54;13.00;99.90
10964;DHT22;5534;48.784;9.190;2023-04-24T05:05:20;13.10;99.90
10964;DHT22;5534;48.784;9.190;2023-04-24T05:07:46;13.20;99.90
10964;DHT22;5534;48.784;9.190;2023-04-24T05:10:11;13.10;99.90
10964;DHT22;5534;48.784;9.190;2023-04-24T05:12:37;13.00;99.90
10964;DHT22;5534;48.784;9.190;2023-04-24T05:15:03;13.10;99.90
10964;DHT22;5534;48.784;9.190;2023-04-24T05:17:31;13.10;99.90
10964;DHT22;5534;48.784;9.190;2023-04-24T05:19:56;13.00;99.90
10964;DHT22;5534;48.784;9.190;2023-04-24T05:22:22;12.80;99.90
10964;DHT22;5534;48.784;9.190;2023-04-24T05:24:49;12.90;99.90
10964;DHT22;5534;48.784;9.190;2023-04-24T05:27:15;13.10;99.90
10964;DHT22;5534;48.784;9.190;2023-04-24T05:29:41;13.00;99.90
10964;DHT22;5534;48.784;9.190;2023-04-24T05:32:06;13.00;99.90
10964;DHT22;5534;48.784;9.190;2023-04-24T05:34:32;13.00;99.90
10964;DHT22;5534;48.784;9.190;2023-04-24T05:36:58;13.00;99.90
10964;DHT22;5534;48.784;9.190;2023-04-24T05:39:24;13.00;99.90
10964;DHT22;5534;48.784;9.190;2023-04-24T05:41:53;13.00;99.90
10964;DHT22;5534;48.784;9.190;2023-04-24T05:44:18;12.90;99.90
10964;DHT22;5534;48.784;9.190;2023-04-24T05:46:44;13.00;99.90
10964;DHT22;5534;48.784;9.190;2023-04-24T05:49:10;13.10;99.90
10964;DHT22;5534;48.784;9.190;2023-04-24T05:51:36;13.20;99.90
10964;DHT22;5534;48.784;9.190;2023-04-24T05:54:03;13.30;99.90
10964;DHT22;5534;48.784;9.190;2023-04-24T05:56:29;13.40;99.90
10964;DHT22;5534;48.784;9.190;2023-04-24T05:58:55;13.30;99.90
10964;DHT22;5534;48.784;9.190;2023-04-24T06:01:21;13.30;99.90
10964;DHT22;5534;48.784;9.190;2023-04-24T06:03:46;13.20;99.90
10964;DHT22;5534;48.784;9.190;2023-04-24T06:06:12;13.20;99.90
10964;DHT22;5534;48.784;9.190;2023-04-24T06:08:38;13.20;99.90
10964;DHT22;5534;48.784;9.190;2023-04-24T06:11:04;13.30;99.90
10964;DHT22;5534;48.784;9.190;2023-04-24T06:13:30;13.20;99.90
10964;DHT22;5534;48.784;9.190;2023-04-24T06:15:55;13.10;99.90
10964;DHT22;5534;48.784;9.190;2023-04-24T06:18:21;13.20;99.90
10964;DHT22;5534;48.784;9.190;2023-04-24T06:20:47;13.30;99.90
10964;DHT22;5534;48.784;9.190;2023-04-24T06:23:13;13.10;99.90
10964;DHT22;5534;48.784;9.190;2023-04-24T06:25:39;13.20;99.90
10964;DHT22;5534;48.784;9.190;2023-04-24T06:28:05;13.30;99.90
10964;DHT22;5534;48.784;9.190;2023-04-24T06:30:31;13.40;99.90
10964;DHT22;5534;48.784;9.190;2023-04-24T06:32:57;13.40;99.90
10964;DHT22;5534;48.784;9.190;2023-04-24T06:35:22;13.40;99.90
10964;DHT22;5534;48.784;9.190;2023-04-24T06:37:48;13.50;99.90
10964;DHT22;5534;48.784;9.190;2023-04-24T06:40:15;13.80;99.90
10964;DHT22;5534;48.784;9.190;2023-04-24T06:42:40;14.00;99.90
10964;DHT22;5534;48.784;9.190;2023-04-24T06:45:06;14.30;99.90
10964;DHT22;5534;48.784;9.190;2023-04-24T06:47:34;14.50;99.90
10964;DHT22;5534;48.784;9.190;2023-04-24T06:49:59;15.50;99.90
10964;DHT22;5534;48.784;9.190;2023-04-24T06:52:26;17.10;99.90
10964;DHT22;5534;48.784;9.190;2023-04-24T06:54:52;17.90;99.90
10964;DHT22;5534;48.784;9.190;2023-04-24T06:57:18;17.70;99.90
10964;DHT22;5534;48.784;9.190;2023-04-24T06:59:45;18.30;99.90
10964;DHT22;5534;48.784;9.190;2023-04-24T07:02:10;18.90;99.90
10964;DHT22;5534;48.784;9.190;2023-04-24T07:04:36;18.60;99.90
10964;DHT22;5534;48.784;9.190;2023-04-24T07:07:02;18.60;99.90
10964;DHT22;5534;48.784;9.190;2023-04-24T07:09:28;17.80;99.90
10964;DHT22;5534;48.784;9.190;2023-04-24T07:11:53;17.40;99.90
10964;DHT22;5534;48.784;9.190;2023-04-24T07:14:20;16.00;99.90
10964;DHT22;5534;48.784;9.190;2023-04-24T07:16:46;15.70;99.90
10964;DHT22;5534;48.784;9.190;2023-04-24T07:19:12;15.50;99.90
10964;DHT22;5534;48.784;9.190;2023-04-24T07:21:39;15.20;99.90
10964;DHT22;5534;48.784;9.190;2023-04-24T07:24:05;14.80;99.90
10964;DHT22;5534;48.784;9.190;2023-04-24T07:26:36;14.60;99.90
10964;DHT22;5534;48.784;9.190;2023-04-24T07:29:02;14.40;99.90
10964;DHT22;5534;48.784;9.190;2023-04-24T07:31:28;14.40;99.90
10964;DHT22;5534;48.784;9.190;2023-04-24T07:33:54;14.10;99.90
10964;DHT22;5534;48.784;9.190;2023-04-24T07:36:23;14.20;99.90
10964;DHT22;5534;48.784;9.190;2023-04-24T07:38:49;14.40;99.90
10964;DHT22;5534;48.784;9.190;2023-04-24T07:41:15;14.80;99.90
10964;DHT22;5534;48.784;9.190;2023-04-24T07:43:41;15.80;99.90
10964;DHT22;5534;48.784;9.190;2023-04-24T07:46:08;16.80;99.90
10964;DHT22;5534;48.784;9.190;2023-04-24T07:48:34;17.60;99.90
10964;DHT22;5534;48.784;9.190;2023-04-24T07:51:00;17.70;99.90
10964;DHT22;5534;48.784;9.190;2023-04-24T07:53:26;17.10;99.90
10964;DHT22;5534;48.784;9.190;2023-04-24T07:55:52;16.40;99.90
10964;DHT22;5534;48.784;9.190;2023-04-24T07:58:17;15.60;99.90
10964;DHT22;5534;48.784;9.190;2023-04-24T08:00:45;15.30;99.90
10964;DHT22;5534;48.784;9.190;2023-04-24T08:03:11;15.40;99.90
10964;DHT22;5534;48.784;9.190;2023-04-24T08:05:38;15.00;99.90
10964;DHT22;5534;48.784;9.190;2023-04-24T08:08:05;14.90;99.90
10964;DHT22;5534;48.784;9.190;2023-04-24T08:10:30;14.40;99.90
10964;DHT22;5534;48.784;9.190;2023-04-24T08:12:56;14.40;99.90
10964;DHT22;5534;48.784;9.190;2023-04-24T08:15:22;14.30;99.90
10964;DHT22;5534;48.784;9.190;2023-04-24T08:17:48;14.20;99.90
10964;DHT22;5534;48.784;9.190;2023-04-24T08:20:14;14.10;99.90
10964;DHT22;5534;48.784;9.190;2023-04-24T08:22:43;14.10;99.90
10964;DHT22;5534;48.784;9.190;2023-04-24T08:25:10;14.30;99.90
10964;DHT22;5534;48.784;9.190;2023-04-24T08:27:37;14.50;99.90
10964;DHT22;5534;48.784;9.190;2023-04-24T08:30:05;14.40;99.90
10964;DHT22;5534;48.784;9.190;2023-04-24T08:32:31;14.60;99.90
10964;DHT22;5534;48.784;9.190;2023-04-24T08:34:58;14.80;99.90
10964;DHT22;5534;48.784;9.190;2023-04-24T08:37:25;14.80;99.90
10964;DHT22;5534;48.784;9.190;2023-04-24T08:39:51;14.70;99.90
10964;DHT22;5534;48.784;9.190;2023-04-24T08:42:18;14.50;99.90
10964;DHT22;5534;48.784;9.190;2023-04-24T08:44:45;14.60;99.90
10964;DHT22;5534;48.784;9.190;2023-04-24T08:47:11;14.40;99.90
10964;DHT22;5534;48.784;9.190;2023-04-24T08:49:38;14.50;99.90
10964;DHT22;5534;48.784;9.190;2023-04-24T08:52:07;14.30;99.90
10964;DHT22;5534;48.784;9.190;2023-04-24T08:54:34;14.00;99.90
10964;DHT22;5534;48.784;9.190;2023-04-24T08:57:01;13.90;99.90
10964;DHT22;5534;48.784;9.190;2023-04-24T08:59:32;13.70;99.90
10964;DHT22;5534;48.784;9.190;2023-04-24T09:02:00;13.90;99.90
10964;DHT22;5534;48.784;9.190;2023-04-24T09:04:26;14.20;99.90
10964;DHT22;5534;48.784;9.190;2023-04-24T09:06:57;14.50;99.90
10964;DHT22;5534;48.784;9.190;2023-04-24T09:09:25;14.50;99.90
10964;DHT22;5534;48.784;9.190;2023-04-24T09:11:52;14.40;99.90
10964;DHT22;5534;48.784;9.190;2023-04-24T09:14:24;14.40;99.90
10964;DHT22;5534;48.784;9.190;2023-04-24T09:16:50;14.00;99.90
10964;DHT22;5534;48.784;9.190;2023-04-24T09:19:17;14.00;99.90
10964;DHT22;5534;48.784;9.190;2023-04-24T09:21:45;13.90;99.90
10964;DHT22;5534;48.784;9.190;2023-04-24T09:24:21;13.80;99.90
10964;DHT22;5534;48.784;9.190;2023-04-24T09:26:58;13.70;99.90
10964;DHT22;5534;48.784;9.190;2023-04-24T09:29:25;13.60;99.90
10964;DHT22;5534;48.784;9.190;2023-04-24T09:31:51;13.70;99.90
10964;DHT22;5534;48.784;9.190;2023-04-24T09:34:25;13.70;99.90
10964;DHT22;5534;48.784;9.190;2023-04-24T09:36:53;13.50;99.90
10964;DHT22;5534;48.784;9.190;2023-04-24T09:39:19;13.50;99.90
10964;DHT22;5534;48.784;9.190;2023-04-24T09:41:50;13.00;99.90
10964;DHT22;5534;48.784;9.190;2023-04-24T09:44:22;13.10;99.90
10964;DHT22;5534;48.784;9.190;2023-04-24T09:46:56;13.40;99.90
10964;DHT22;5534;48.784;9.190;2023-04-24T09:49:28;13.40;99.90
10964;DHT22;5534;48.784;9.190;2023-04-24T09:52:10;13.70;99.90
10964;DHT22;5534;48.784;9.190;2023-04-24T09:54:36;14.00;99.90
10964;DHT22;5534;48.784;9.190;2023-04-24T09:57:02;14.10;99.90
10964;DHT22;5534;48.784;9.190;2023-04-24T09:59:29;14.10;99.90
10964;DHT22;5534;48.784;9.190;2023-04-24T10:01:55;13.90;99.90
10964;DHT22;5534;48.784;9.190;2023-04-24T10:04:23;14.10;99.90
10964;DHT22;5534;48.784;9.190;2023-04-24T10:06:51;14.10;99.90
10964;DHT22;5534;48.784;9.190;2023-04-24T10:09:20;13.80;99.90
10964;DHT22;5534;48.784;9.190;2023-04-24T10:11:48;13.80;99.90
10964;DHT22;5534;48.784;9.190;2023-04-24T10:14:16;13.90;99.90
10964;DHT22;5534;48.784;9.190;2023-04-24T10:16:42;14.00;99.90
10964;DHT22;5534;48.784;9.190;2023-04-24T10:19:10;14.20;99.90
10964;DHT22;5534;48.784;9.190;2023-04-24T10:21:36;14.30;99.90
10964;DHT22;5534;48.784;9.190;2023-04-24T10:24:08;14.50;99.90
10964;DHT22;5534;48.784;9.190;2023-04-24T10:26:34;14.70;99.90
10964;DHT22;5534;48.784;9.190;2023-04-24T10:29:01;15.00;99.90
10964;DHT22;5534;48.784;9.190;2023-04-24T10:31:30;15.30;99.90
10964;DHT22;5534;48.784;9.190;2023-04-24T10:33:58;15.30;99.90
10964;DHT22;5534;48.784;9.190;2023-04-24T10:36:25;15.60;99.90
10964;DHT22;5534;48.784;9.190;2023-04-24T10:38:54;15.40;99.90
10964;DHT22;5534;48.784;9.190;2023-04-24T10:41:25;14.90;99.90
10964;DHT22;5534;48.784;9.190;2023-04-24T10:44:12;14.70;99.90
10964;DHT22;5534;48.784;9.190;2023-04-24T10:46:42;14.70;99.90
10964;DHT22;5534;48.784;9.190;2023-04-24T10:49:08;14.70;99.90
10964;DHT22;5534;48.784;9.190;2023-04-24T10:54:28;14.50;99.90
10964;DHT22;5534;48.784;9.190;2023-04-24T11:00:32;14.40;99.90
10964;DHT22;5534;48.784;9.190;2023-04-24T11:02:39;14.60;99.90
10964;DHT22;5534;48.784;9.190;2023-04-24T11:05:09;14.60;99.90
10964;DHT22;5534;48.784;9.190;2023-04-24T11:16:26;14.30;99.90
10964;DHT22;5534;48.784;9.190;2023-04-24T11:18:59;14.20;99.90
10964;DHT22;5534;48.784;9.190;2023-04-24T11:21:50;14.40;99.90
10964;DHT22;5534;48.784;9.190;2023-04-24T11:24:32;14.40;99.90
10964;DHT22;5534;48.784;9.190;2023-04-24T11:27:19;14.60;99.90
10964;DHT22;5534;48.784;9.190;2023-04-24T11:32:35;14.80;99.90
10964;DHT22;5534;48.784;9.190;2023-04-24T11:35:20;14.80;99.90
10964;DHT22;5534;48.784;9.190;2023-04-24T11:37:52;14.90;99.90
10964;DHT22;5534;48.784;9.190;2023-04-24T11:40:19;14.80;99.90
10964;DHT22;5534;48.784;9.190;2023-04-24T11:42:47;15.10;99.90
10964;DHT22;5534;48.784;9.190;2023-04-24T11:45:14;15.30;99.90
10964;DHT22;5534;48.784;9.190;2023-04-24T11:47:40;15.30;99.90
10964;DHT22;5534;48.784;9.190;2023-04-24T11:50:11;15.10;99.90
10964;DHT22;5534;48.784;9.190;2023-04-24T11:52:39;14.80;99.90
10964;DHT22;5534;48.784;9.190;2023-04-24T11:55:29;14.40;99.90
10964;DHT22;5534;48.784;9.190;2023-04-24T11:57:56;14.10;99.90
10964;DHT22;5534;48.784;9.190;2023-04-24T12:00:25;14.20;99.90
10964;DHT22;5534;48.784;9.190;2023-04-24T12:03:03;14.30;99.90
10964;DHT22;5534;48.784;9.190;2023-04-24T12:05:29;14.10;99.90
10964;DHT22;5534;48.784;9.190;2023-04-24T12:07:57;14.20;99.90
10964;DHT22;5534;48.784;9.190;2023-04-24T12:10:24;14.40;99.90
10964;DHT22;5534;48.784;9.190;2023-04-24T12:12:51;14.80;99.90
10964;DHT22;5534;48.784;9.190;2023-04-24T12:15:18;15.10;99.90
10964;DHT22;5534;48.784;9.190;2023-04-24T12:17:45;15.20;99.90
10964;DHT22;5534;48.784;9.190;2023-04-24T12:20:12;15.20;99.90
10964;DHT22;5534;48.784;9.190;2023-04-24T12:22:52;14.90;99.90
10964;DHT22;5534;48.784;9.190;2023-04-24T12:25:26;14.70;99.90
10964;DHT22;5534;48.784;9.190;2023-04-24T12:28:10;14.60;99.90
10964;DHT22;5534;48.784;9.190;2023-04-24T12:30:46;14.60;99.90
10964;DHT22;5534;48.784;9.190;2023-04-24T12:33:20;14.60;99.90
10964;DHT22;5534;48.784;9.190;2023-04-24T12:35:52;14.60;99.90
10964;DHT22;5534;48.784;9.190;2023-04-24T12:38:22;14.50;99.90
10964;DHT22;5534;48.784;9.190;2023-04-24T12:41:06;14.70;99.90
10964;DHT22;5534;48.784;9.190;2023-04-24T12:43:32;14.50;99.90
10964;DHT22;5534;48.784;9.190;2023-04-24T12:45:58;14.60;99.90
10964;DHT22;5534;48.784;9.190;2023-04-24T12:48:28;14.80;99.90
10964;DHT22;5534;48.784;9.190;2023-04-24T12:51:00;14.80;99.90
10964;DHT22;5534;48.784;9.190;2023-04-24T12:53:29;14.70;99.90
10964;DHT22;5534;48.784;9.190;2023-04-24T12:55:58;14.80;99.90
10964;DHT22;5534;48.784;9.190;2023-04-24T12:58:24;14.70;99.90
10964;DHT22;5534;48.784;9.190;2023-04-24T13:00:50;14.60;99.90
10964;DHT22;5534;48.784;9.190;2023-04-24T13:03:16;14.60;99.90
10964;DHT22;5534;48.784;9.190;2023-04-24T13:05:43;14.60;99.90
10964;DHT22;5534;48.784;9.190;2023-04-24T13:08:10;14.60;99.90
10964;DHT22;5534;48.784;9.190;2023-04-24T13:10:36;14.60;99.90
10964;DHT22;5534;48.784;9.190;2023-04-24T13:13:03;14.60;99.90
10964;DHT22;5534;48.784;9.190;2023-04-24T13:15:29;14.40;99.90
10964;DHT22;5534;48.784;9.190;2023-04-24T13:17:55;14.40;99.90
10964;DHT22;5534;48.784;9.190;2023-04-24T13:20:21;14.20;99.90
10964;DHT22;5534;48.784;9.190;2023-04-24T13:22:46;14.20;99.90
10964;DHT22;5534;48.784;9.190;2023-04-24T13:25:12;14.30;99.90
10964;DHT22;5534;48.784;9.190;2023-04-24T13:27:39;14.40;99.90
10964;DHT22;5534;48.784;9.190;2023-04-24T13:30:08;14.40;99.90
10964;DHT22;5534;48.784;9.190;2023-04-24T13:32:34;14.30;99.90
10964;DHT22;5534;48.784;9.190;2023-04-24T13:35:01;14.40;99.90
10964;DHT22;5534;48.784;9.190;2023-04-24T13:37:27;14.30;99.90
10964;DHT22;5534;48.784;9.190;2023-04-24T13:39:53;14.40;99.90
10964;DHT22;5534;48.784;9.190;2023-04-24T13:42:19;14.30;99.90
10964;DHT22;5534;48.784;9.190;2023-04-24T13:44:46;14.50;99.90
10964;DHT22;5534;48.784;9.190;2023-04-24T13:47:11;14.30;99.90
10964;DHT22;5534;48.784;9.190;2023-04-24T13:49:37;14.30;99.90
10964;DHT22;5534;48.784;9.190;2023-04-24T13:52:03;14.30;99.90
10964;DHT22;5534;48.784;9.190;2023-04-24T13:54:29;13.90;99.90
10964;DHT22;5534;48.784;9.190;2023-04-24T13:56:57;13.40;99.90
10964;DHT22;5534;48.784;9.190;2023-04-24T13:59:23;13.20;99.90
10964;DHT22;5534;48.784;9.190;2023-04-24T14:01:49;13.10;99.90
10964;DHT22;5534;48.784;9.190;2023-04-24T14:04:15;12.90;99.90
10964;DHT22;5534;48.784;9.190;2023-04-24T14:06:41;13.10;99.90
10964;DHT22;5534;48.784;9.190;2023-04-24T14:09:07;13.50;99.90
10964;DHT22;5534;48.784;9.190;2023-04-24T14:11:33;13.70;99.90
10964;DHT22;5534;48.784;9.190;2023-04-24T14:13:59;13.90;99.90
10964;DHT22;5534;48.784;9.190;2023-04-24T14:16:25;14.10;99.90
10964;DHT22;5534;48.784;9.190;2023-04-24T14:18:51;14.00;99.90
10964;DHT22;5534;48.784;9.190;2023-04-24T14:21:16;14.00;99.90
10964;DHT22;5534;48.784;9.190;2023-04-24T14:23:42;13.70;99.90
10964;DHT22;5534;48.784;9.190;2023-04-24T14:26:08;14.00;99.90
10964;DHT22;5534;48.784;9.190;2023-04-24T14:28:35;14.20;99.90
10964;DHT22;5534;48.784;9.190;2023-04-24T14:31:01;14.30;99.90
10964;DHT22;5534;48.784;9.190;2023-04-24T14:33:27;14.50;99.90
10964;DHT22;5534;48.784;9.190;2023-04-24T14:35:52;14.40;99.90
10964;DHT22;5534;48.784;9.190;2023-04-24T14:38:18;14.70;99.90
10964;DHT22;5534;48.784;9.190;2023-04-24T14:40:44;14.70;99.90
10964;DHT22;5534;48.784;9.190;2023-04-24T14:43:10;14.90;99.90
10964;DHT22;5534;48.784;9.190;2023-04-24T14:45:37;14.70;99.90
10964;DHT22;5534;48.784;9.190;2023-04-24T14:48:03;14.60;99.90
10964;DHT22;5534;48.784;9.190;2023-04-24T14:50:29;14.40;99.90
10964;DHT22;5534;48.784;9.190;2023-04-24T14:52:55;14.00;99.90
10964;DHT22;5534;48.784;9.190;2023-04-24T14:55:25;13.90;99.90
10964;DHT22;5534;48.784;9.190;2023-04-24T14:57:51;13.90;99.90
10964;DHT22;5534;48.784;9.190;2023-04-24T15:00:18;14.10;99.90
10964;DHT22;5534;48.784;9.190;2023-04-24T15:02:45;13.90;99.90
10964;DHT22;5534;48.784;9.190;2023-04-24T15:05:11;14.10;99.90
10964;DHT22;5534;48.784;9.190;2023-04-24T15:07:38;14.30;99.90
10964;DHT22;5534;48.784;9.190;2023-04-24T15:10:04;14.60;99.90
10964;DHT22;5534;48.784;9.190;2023-04-24T15:12:30;14.50;99.90
10964;DHT22;5534;48.784;9.190;2023-04-24T15:14:58;14.30;99.90
10964;DHT22;5534;48.784;9.190;2023-04-24T15:17:23;14.20;99.90
10964;DHT22;5534;48.784;9.190;2023-04-24T15:19:49;14.30;99.90
10964;DHT22;5534;48.784;9.190;2023-04-24T15:22:15;14.40;99.90
10964;DHT22;5534;48.784;9.190;2023-04-24T15:24:41;14.30;99.90
10964;DHT22;5534;48.784;9.190;2023-04-24T15:27:09;14.30;99.90
10964;DHT22;5534;48.784;9.190;2023-04-24T15:29:36;14.10;99.90
10964;DHT22;5534;48.784;9.190;2023-04-24T15:32:02;13.90;99.90
10964;DHT22;5534;48.784;9.190;2023-04-24T15:34:30;13.70;99.90
10964;DHT22;5534;48.784;9.190;2023-04-24T15:36:57;13.80;99.90
10964;DHT22;5534;48.784;9.190;2023-04-24T15:39:23;14.00;99.90
10964;DHT22;5534;48.784;9.190;2023-04-24T15:41:53;14.10;99.90
10964;DHT22;5534;48.784;9.190;2023-04-24T15:44:20;14.00;99.90
10964;DHT22;5534;48.784;9.190;2023-04-24T15:46:46;13.90;99.90
10964;DHT22;5534;48.784;9.190;2023-04-24T15:49:13;13.80;99.90
10964;DHT22;5534;48.784;9.190;2023-04-24T15:51:38;13.70;99.90
10964;DHT22;5534;48.784;9.190;2023-04-24T15:54:04;13.80;99.90
10964;DHT22;5534;48.784;9.190;2023-04-24T15:56:30;13.80;99.90
10964;DHT22;5534;48.784;9.190;2023-04-24T15:58:58;13.70;99.90
10964;DHT22;5534;48.784;9.190;2023-04-24T16:01:25;13.50;99.90